Time;durP1;ratioP1;P1;durP2;ratioP2;P2;SDS_P1;SDS_P2;PMS_P1;PMS_P2;Temp;Humidity;BMP_temperature;BMP_pressure;BME280_temperature;BME280_humidity;BME280_pressure;Samples;Min_cycle;Max_cycle;Signal;HPM_P1;HPM_P2
2021/03/14 05:07:13;;;;;;;8.93;3.40;;;3.70;99.90;;;;;;6163831;23;20204;-87
2021/03/14 05:09:40;;;;;;;10.57;3.90;;;3.80;99.90;;;;;;6156624;23;20185;-85
2021/03/14 05:12:07;;;;;;;9.47;3.63;;;3.80;99.90;;;;;;6155215;23;20160;-87
2021/03/14 05:14:36;;;;;;;9.10;3.57;;;3.90;99.90;;;;;;6155284;23;20181;-84
2021/03/14 05:17:03;;;;;;;10.40;4.17;;;3.90;99.90;;;;;;6156117;23;20617;-85
2021/03/14 05:19:32;;;;;;;10.20;3.50;;;3.80;99.90;;;;;;6155685;23;20613;-85
2021/03/14 05:21:59;;;;;;;9.63;4.13;;;3.80;99.90;;;;;;6156326;23;20154;-86
2021/03/14 05:24:25;;;;;;;11.67;3.50;;;3.80;99.90;;;;;;6155891;23;20149;-87
2021/03/14 05:26:52;;;;;;;10.00;3.53;;;3.90;99.90;;;;;;6156955;23;20219;-86
2021/03/14 05:29:18;;;;;;;10.40;3.60;;;3.90;99.90;;;;;;6155974;23;20157;-86
2021/03/14 05:31:44;;;;;;;10.93;3.90;;;3.80;99.90;;;;;;6156277;23;20628;-86
2021/03/14 05:34:17;;;;;;;8.70;2.97;;;3.90;99.90;;;;;;6155470;23;20149;-85
2021/03/14 05:36:44;;;;;;;10.73;3.40;;;3.90;99.90;;;;;;6155958;23;20641;-85
2021/03/14 05:39:10;;;;;;;9.27;3.40;;;3.90;99.90;;;;;;6155644;23;20156;-86
2021/03/14 05:41:37;;;;;;;11.87;3.13;;;3.80;99.90;;;;;;6156216;23;20153;-85
2021/03/14 05:44:04;;;;;;;10.27;3.50;;;3.80;99.90;;;;;;6155159;23;20161;-86
2021/03/14 05:46:31;;;;;;;11.17;3.90;;;3.80;99.90;;;;;;6155839;23;20264;-86
2021/03/14 05:48:57;;;;;;;10.90;4.00;;;3.80;99.90;;;;;;6156022;23;20153;-86
2021/03/14 05:51:27;;;;;;;8.23;3.20;;;3.80;99.90;;;;;;6156031;23;20149;-86
2021/03/14 05:53:55;;;;;;;11.47;3.30;;;3.70;99.90;;;;;;6158312;23;20252;-85
2021/03/14 05:56:21;;;;;;;13.37;3.87;;;3.80;99.90;;;;;;6157467;23;20169;-85
2021/03/14 05:58:48;;;;;;;9.70;3.83;;;3.70;99.90;;;;;;6156127;23;20156;-85
2021/03/14 06:01:17;;;;;;;10.33;3.23;;;3.70;99.90;;;;;;6155973;23;20641;-85
2021/03/14 06:03:44;;;;;;;10.97;3.50;;;3.80;99.90;;;;;;6154616;23;20148;-85
2021/03/14 06:06:11;;;;;;;8.27;3.70;;;3.70;99.90;;;;;;6155202;23;20223;-85
2021/03/14 06:08:38;;;;;;;12.93;4.20;;;3.80;99.90;;;;;;6157688;23;20150;-87
2021/03/14 06:11:05;;;;;;;8.90;3.70;;;3.80;99.90;;;;;;6155661;23;20164;-87
2021/03/14 06:13:31;;;;;;;12.80;4.13;;;3.80;99.90;;;;;;6155583;23;20153;-86
2021/03/14 06:15:57;;;;;;;9.97;3.77;;;3.80;99.90;;;;;;6155526;23;20261;-85
2021/03/14 06:18:23;;;;;;;12.10;3.77;;;3.90;99.90;;;;;;6155147;23;20160;-85
2021/03/14 06:20:48;;;;;;;9.27;3.70;;;3.80;99.90;;;;;;6155365;23;20225;-85
2021/03/14 06:23:17;;;;;;;10.43;3.93;;;3.90;99.90;;;;;;6155671;23;20168;-85
2021/03/14 06:25:44;;;;;;;11.67;4.60;;;3.80;99.90;;;;;;6155271;23;20193;-85
2021/03/14 06:28:11;;;;;;;10.90;4.10;;;3.80;99.90;;;;;;6154505;23;20629;-85
2021/03/14 06:30:37;;;;;;;12.40;4.07;;;3.90;99.90;;;;;;6155186;23;20622;-85
2021/03/14 06:33:15;;;;;;;7.57;3.43;;;4.00;99.90;;;;;;6156158;23;20153;-85
2021/03/14 06:35:51;;;;;;;12.33;3.87;;;4.10;99.90;;;;;;6156789;23;20703;-85
2021/03/14 06:38:34;;;;;;;13.47;3.87;;;4.20;99.90;;;;;;6155293;23;20197;-85
2021/03/14 06:41:06;;;;;;;10.90;3.33;;;4.30;99.90;;;;;;6154903;23;20247;-86
2021/03/14 06:43:39;;;;;;;12.53;4.47;;;4.30;99.90;;;;;;6154963;23;20157;-85
2021/03/14 06:46:19;;;;;;;10.07;3.20;;;4.20;99.90;;;;;;6153884;23;20192;-85
2021/03/14 06:48:45;;;;;;;16.43;5.00;;;4.30;99.90;;;;;;6154864;23;20145;-85
2021/03/14 06:51:11;;;;;;;15.40;4.93;;;4.30;99.90;;;;;;6154891;23;20164;-86
2021/03/14 06:53:36;;;;;;;16.93;4.00;;;4.40;99.90;;;;;;6157158;23;20153;-85
2021/03/14 06:56:06;;;;;;;13.17;4.67;;;4.50;99.90;;;;;;6154429;23;20182;-85
2021/03/14 06:58:36;;;;;;;13.07;3.77;;;4.50;99.90;;;;;;6153659;23;20240;-84
2021/03/14 07:01:13;;;;;;;17.20;4.50;;;4.60;99.90;;;;;;6154410;23;20195;-85
2021/03/14 07:03:43;;;;;;;19.83;6.37;;;4.60;99.90;;;;;;6155385;23;20203;-85
2021/03/14 07:06:25;;;;;;;14.77;4.13;;;4.60;99.90;;;;;;6154322;23;20207;-85
2021/03/14 07:08:59;;;;;;;11.97;4.50;;;4.60;99.90;;;;;;6154470;23;20156;-85
2021/03/14 07:11:45;;;;;;;18.50;6.40;;;4.70;99.90;;;;;;6154830;23;20494;-86
2021/03/14 07:14:19;;;;;;;17.73;5.30;;;4.70;99.90;;;;;;6155198;23;20162;-85
2021/03/14 07:16:56;;;;;;;15.07;5.33;;;4.80;99.90;;;;;;6157203;23;20232;-85
2021/03/14 07:19:24;;;;;;;18.03;5.40;;;4.80;99.90;;;;;;6155631;23;20228;-85
2021/03/14 07:21:59;;;;;;;13.53;4.77;;;4.80;99.90;;;;;;6157249;23;20229;-85
2021/03/14 07:24:45;;;;;;;15.93;4.90;;;4.80;99.90;;;;;;6157051;23;20179;-85
2021/03/14 07:27:22;;;;;;;14.33;4.03;;;4.80;99.90;;;;;;6154765;23;20184;-86
2021/03/14 07:29:49;;;;;;;15.50;4.50;;;4.90;99.90;;;;;;6155464;23;20150;-85
2021/03/14 07:32:15;;;;;;;12.40;4.57;;;5.00;99.90;;;;;;6154019;23;20160;-86
2021/03/14 07:34:41;;;;;;;14.47;3.87;;;5.20;99.90;;;;;;6154966;23;20167;-85
2021/03/14 07:37:07;;;;;;;10.77;3.50;;;5.20;99.90;;;;;;6156677;23;20169;-84
2021/03/14 07:39:38;;;;;;;14.07;3.40;;;5.40;99.90;;;;;;6156849;23;20153;-88
2021/03/14 07:42:05;;;;;;;11.13;3.50;;;5.40;99.90;;;;;;6155659;23;20156;-85
2021/03/14 07:44:31;;;;;;;14.63;4.03;;;5.50;99.90;;;;;;6157182;23;20618;-85
2021/03/14 07:46:57;;;;;;;17.70;4.37;;;5.50;99.90;;;;;;6155218;23;20195;-85
2021/03/14 07:49:25;;;;;;;14.33;3.77;;;5.60;99.90;;;;;;6155126;23;20154;-85
2021/03/14 07:51:55;;;;;;;16.57;4.53;;;5.60;99.90;;;;;;6155369;23;20158;-85
2021/03/14 07:54:27;;;;;;;10.70;3.33;;;5.60;99.90;;;;;;6157122;23;20151;-84
2021/03/14 07:56:58;;;;;;;18.00;4.77;;;5.70;99.90;;;;;;6154825;23;20899;-84
2021/03/14 07:59:31;;;;;;;19.20;4.10;;;5.70;99.90;;;;;;6153485;23;20143;-85
2021/03/14 08:02:18;;;;;;;16.10;4.57;;;5.90;99.90;;;;;;6155408;23;20141;-85
2021/03/14 08:04:49;;;;;;;22.77;5.70;;;6.00;99.90;;;;;;6155243;23;20178;-86
2021/03/14 08:07:16;;;;;;;20.33;4.33;;;6.00;99.90;;;;;;6154911;23;20213;-86
2021/03/14 08:09:50;;;;;;;22.00;4.70;;;6.00;99.90;;;;;;6154936;23;20160;-85
2021/03/14 08:12:22;;;;;;;18.93;3.90;;;6.10;99.90;;;;;;6155361;23;20152;-85
2021/03/14 08:14:56;;;;;;;13.30;3.70;;;6.20;99.90;;;;;;6154576;23;20575;-86
2021/03/14 08:17:24;;;;;;;19.50;4.40;;;6.20;99.90;;;;;;6154941;23;20527;-84
2021/03/14 08:19:51;;;;;;;19.57;5.57;;;6.30;99.90;;;;;;6155459;23;20160;-84
2021/03/14 08:22:39;;;;;;;16.93;4.07;;;6.30;99.90;;;;;;6155443;23;20189;-85
2021/03/14 08:25:21;;;;;;;17.77;4.30;;;6.30;99.90;;;;;;6154923;23;20247;-85
2021/03/14 08:27:53;;;;;;;16.37;4.30;;;6.40;99.90;;;;;;6155217;23;20197;-85
2021/03/14 08:30:31;;;;;;;14.67;3.37;;;6.40;99.90;;;;;;6154648;23;20201;-84
2021/03/14 08:33:25;;;;;;;13.63;3.57;;;6.60;99.90;;;;;;6155669;23;20210;-84
2021/03/14 08:35:56;;;;;;;13.37;3.10;;;6.70;99.90;;;;;;6152409;23;20180;-85
2021/03/14 08:38:41;;;;;;;13.03;2.90;;;6.90;99.90;;;;;;6153423;23;20493;-85
2021/03/14 08:41:25;;;;;;;8.90;2.53;;;7.00;99.90;;;;;;6152562;23;20649;-84
2021/03/14 08:43:54;;;;;;;11.53;2.30;;;7.10;99.90;;;;;;6154107;23;20892;-84
2021/03/14 08:46:20;;;;;;;8.43;2.30;;;7.00;99.90;;;;;;6154754;23;20649;-84
2021/03/14 08:48:46;;;;;;;8.40;1.87;;;7.00;99.90;;;;;;6150748;23;20210;-83
2021/03/14 08:51:12;;;;;;;6.37;1.60;;;7.10;99.90;;;;;;6153631;23;20219;-85
2021/03/14 08:53:39;;;;;;;6.20;1.40;;;7.30;99.90;;;;;;6150721;23;20153;-83
2021/03/14 08:56:12;;;;;;;8.07;1.70;;;7.30;99.90;;;;;;6151967;23;20188;-86
2021/03/14 08:58:37;;;;;;;7.47;1.97;;;7.20;99.90;;;;;;6151015;23;20161;-84
2021/03/14 09:01:09;;;;;;;9.70;1.83;;;7.20;99.90;;;;;;6151693;23;20244;-85
2021/03/14 09:03:42;;;;;;;5.63;1.60;;;7.20;99.90;;;;;;6151706;23;20962;-85
2021/03/14 09:06:29;;;;;;;7.20;1.90;;;7.30;99.90;;;;;;6152680;23;20196;-85
2021/03/14 09:09:06;;;;;;;6.63;1.00;;;7.40;99.90;;;;;;6151378;23;20566;-83
2021/03/14 09:11:53;;;;;;;9.87;1.73;;;7.30;99.90;;;;;;6152734;23;20203;-83
2021/03/14 09:14:36;;;;;;;6.77;1.53;;;7.20;99.90;;;;;;6153953;23;20631;-83
2021/03/14 09:17:07;;;;;;;7.70;1.63;;;7.00;99.90;;;;;;6153564;23;20169;-83
2021/03/14 09:19:50;;;;;;;6.57;1.10;;;7.00;99.90;;;;;;6153004;23;20537;-85
2021/03/14 09:22:23;;;;;;;7.10;1.83;;;6.90;99.90;;;;;;6155743;23;20156;-84
2021/03/14 09:25:01;;;;;;;3.43;1.00;;;7.00;99.90;;;;;;6154974;23;20177;-86
2021/03/14 09:27:30;;;;;;;9.77;2.10;;;7.10;99.90;;;;;;6155140;23;20164;-85
2021/03/14 09:30:08;;;;;;;7.70;1.80;;;7.00;99.90;;;;;;6153829;23;20160;-84
2021/03/14 09:32:46;;;;;;;9.93;2.00;;;7.00;99.90;;;;;;6153634;23;20141;-83
2021/03/14 09:35:26;;;;;;;8.47;2.00;;;7.10;99.90;;;;;;6154434;23;20223;-85
2021/03/14 09:37:57;;;;;;;4.97;1.50;;;7.30;99.90;;;;;;6156252;23;20188;-85
2021/03/14 09:40:27;;;;;;;5.53;1.33;;;7.30;99.90;;;;;;6153973;23;20164;-85
2021/03/14 09:43:13;;;;;;;7.67;1.50;;;7.30;99.90;;;;;;6153938;23;20161;-84
2021/03/14 09:45:58;;;;;;;8.23;1.57;;;7.20;99.90;;;;;;6152860;23;20194;-86
2021/03/14 09:48:27;;;;;;;7.50;1.40;;;7.30;99.90;;;;;;6153472;23;20642;-86
2021/03/14 09:50:56;;;;;;;8.30;1.50;;;7.50;99.90;;;;;;6153720;23;20149;-84
2021/03/14 09:53:36;;;;;;;11.50;2.60;;;7.60;99.90;;;;;;6155929;23;20149;-84
2021/03/14 09:56:14;;;;;;;11.17;1.80;;;7.60;99.90;;;;;;6154084;23;20529;-84
2021/03/14 09:58:40;;;;;;;9.10;1.90;;;7.60;99.90;;;;;;6151870;23;20157;-83
2021/03/14 10:01:06;;;;;;;10.97;1.60;;;7.60;99.90;;;;;;6149421;23;20176;-84
2021/03/14 10:03:38;;;;;;;10.77;2.10;;;7.60;99.90;;;;;;6149804;23;20487;-84
2021/03/14 10:06:06;;;;;;;8.07;1.40;;;7.60;99.90;;;;;;6149543;23;20193;-83
2021/03/14 10:08:33;;;;;;;8.03;1.67;;;7.70;99.90;;;;;;6148322;23;20653;-84
2021/03/14 10:11:00;;;;;;;10.13;2.17;;;7.60;99.90;;;;;;6148987;23;20235;-84
2021/03/14 10:13:28;;;;;;;10.43;2.27;;;7.60;99.90;;;;;;6148052;23;20153;-83
2021/03/14 10:16:03;;;;;;;6.63;1.50;;;7.60;99.90;;;;;;6147855;23;20629;-84
2021/03/14 10:18:30;;;;;;;8.87;1.50;;;7.90;99.90;;;;;;6152310;23;20145;-83
2021/03/14 10:21:15;;;;;;;9.23;1.70;;;8.00;99.90;;;;;;6151372;23;20534;-84
2021/03/14 10:23:40;;;;;;;6.07;1.27;;;8.10;99.90;;;;;;6151036;23;20160;-84
2021/03/14 10:26:07;;;;;;;6.00;1.10;;;8.20;99.90;;;;;;6154693;23;20188;-83
2021/03/14 10:28:36;;;;;;;8.50;1.40;;;8.30;99.90;;;;;;6152657;23;20163;-84
2021/03/14 10:31:08;;;;;;;8.50;1.63;;;8.40;99.90;;;;;;6153628;23;20157;-84
2021/03/14 10:33:36;;;;;;;4.17;0.80;;;8.60;99.90;;;;;;6151230;23;20152;-84
2021/03/14 10:36:03;;;;;;;7.00;1.07;;;8.60;99.90;;;;;;6152569;23;20253;-83
2021/03/14 10:38:36;;;;;;;8.50;1.10;;;8.50;99.90;;;;;;6154170;23;20232;-85
2021/03/14 10:41:10;;;;;;;7.20;1.30;;;8.50;99.90;;;;;;6154408;23;20146;-83
2021/03/14 10:43:47;;;;;;;7.23;1.63;;;8.60;99.90;;;;;;6152206;23;20244;-86
2021/03/14 10:46:14;;;;;;;6.03;1.13;;;8.60;99.90;;;;;;6150942;23;20195;-85
2021/03/14 10:48:40;;;;;;;8.93;1.80;;;8.60;99.90;;;;;;6150571;23;20156;-84
2021/03/14 10:51:07;;;;;;;10.40;1.20;;;8.30;99.90;;;;;;6153819;23;20239;-85
2021/03/14 10:53:34;;;;;;;10.00;1.23;;;8.40;99.90;;;;;;6153583;23;20149;-85
2021/03/14 10:56:05;;;;;;;4.10;0.80;;;8.50;99.90;;;;;;6153454;23;20519;-85
2021/03/14 10:58:49;;;;;;;8.90;1.80;;;8.70;99.90;;;;;;6153453;23;20156;-84
2021/03/14 11:01:29;;;;;;;9.90;1.57;;;8.80;99.90;;;;;;6154997;23;20148;-85
2021/03/14 11:04:02;;;;;;;9.63;1.73;;;8.90;99.90;;;;;;6153398;23;20156;-84
2021/03/14 11:06:28;;;;;;;8.90;1.43;;;9.10;99.90;;;;;;6153586;23;20218;-85
2021/03/14 11:09:01;;;;;;;10.77;1.20;;;9.20;99.90;;;;;;6152609;23;20168;-85
2021/03/14 11:11:48;;;;;;;12.20;1.70;;;9.30;99.90;;;;;;6154797;23;20180;-84
2021/03/14 11:14:38;;;;;;;9.97;1.50;;;9.30;99.90;;;;;;6153151;23;20663;-85
2021/03/14 11:17:16;;;;;;;8.57;0.97;;;9.50;99.90;;;;;;6153114;23;20697;-83
2021/03/14 11:20:06;;;;;;;10.07;1.50;;;9.50;99.90;;;;;;6152564;23;20671;-84
2021/03/14 11:22:31;;;;;;;6.13;0.90;;;9.40;99.90;;;;;;6153768;23;20149;-84
2021/03/14 11:24:57;;;;;;;6.73;1.07;;;9.40;99.90;;;;;;6152522;23;20683;-83
2021/03/14 11:27:23;;;;;;;8.13;1.47;;;9.40;99.90;;;;;;6151821;23;20184;-84
2021/03/14 11:29:48;;;;;;;8.03;1.83;;;9.00;99.90;;;;;;6154133;23;20160;-84
2021/03/14 11:32:14;;;;;;;11.47;1.63;;;9.00;99.90;;;;;;6152904;23;20156;-83
2021/03/14 11:34:45;;;;;;;12.43;1.27;;;9.10;99.90;;;;;;6152394;23;20256;-83
2021/03/14 11:37:12;;;;;;;10.80;1.43;;;9.20;99.90;;;;;;6152703;23;20177;-85
2021/03/14 11:39:56;;;;;;;5.83;1.20;;;9.30;99.90;;;;;;6153600;23;20145;-84
2021/03/14 11:42:22;;;;;;;10.00;1.60;;;9.40;99.90;;;;;;6152014;23;20141;-84
2021/03/14 11:44:47;;;;;;;12.73;3.27;;;9.40;99.90;;;;;;6153180;23;20249;-84
2021/03/14 11:47:13;;;;;;;8.30;1.77;;;9.20;99.90;;;;;;6151814;23;20200;-83
2021/03/14 11:49:39;;;;;;;12.30;1.90;;;9.20;99.90;;;;;;6152814;23;20161;-83
2021/03/14 11:52:04;;;;;;;12.20;1.40;;;9.20;99.90;;;;;;6153081;23;20153;-82
2021/03/14 11:54:30;;;;;;;10.97;1.73;;;9.10;99.90;;;;;;6153162;23;20149;-84
2021/03/14 11:56:56;;;;;;;15.27;2.03;;;8.90;99.90;;;;;;6152140;23;20255;-83
2021/03/14 11:59:21;;;;;;;11.13;2.27;;;8.90;99.90;;;;;;6152572;23;20215;-84
2021/03/14 12:01:49;;;;;;;14.07;2.03;;;8.70;99.90;;;;;;6149692;23;20161;-82
2021/03/14 12:04:15;;;;;;;16.10;4.10;;;8.60;99.90;;;;;;6152891;23;20191;-83
2021/03/14 12:06:41;;;;;;;13.33;2.53;;;8.40;99.90;;;;;;6151676;23;20196;-83
2021/03/14 12:09:07;;;;;;;10.23;1.80;;;8.50;99.90;;;;;;6152531;23;20220;-83
2021/03/14 12:11:36;;;;;;;9.97;2.00;;;8.40;99.90;;;;;;6153942;23;20164;-83
2021/03/14 12:14:02;;;;;;;10.40;2.40;;;8.40;99.90;;;;;;6152411;23;20153;-82
2021/03/14 12:16:28;;;;;;;10.53;1.50;;;8.40;99.90;;;;;;6153487;23;20172;-82
2021/03/14 12:18:54;;;;;;;11.10;1.50;;;8.40;99.90;;;;;;6152716;23;20161;-84
2021/03/14 12:21:19;;;;;;;11.20;1.33;;;8.40;99.90;;;;;;6152350;23;20651;-84
2021/03/14 12:23:45;;;;;;;9.70;1.43;;;8.50;99.90;;;;;;6151819;23;20168;-85
2021/03/14 12:26:11;;;;;;;10.13;1.43;;;8.50;99.90;;;;;;6152613;23;20184;-83
2021/03/14 12:28:37;;;;;;;7.53;1.40;;;8.40;99.90;;;;;;6153368;23;20145;-83
2021/03/14 12:31:02;;;;;;;5.77;1.50;;;8.40;99.90;;;;;;6153417;23;20156;-83
2021/03/14 12:33:28;;;;;;;8.70;1.47;;;8.40;99.90;;;;;;6152255;23;20157;-83
2021/03/14 12:35:54;;;;;;;13.07;2.10;;;8.50;99.90;;;;;;6151272;23;20184;-83
2021/03/14 12:38:21;;;;;;;7.80;1.30;;;8.40;99.90;;;;;;6148114;23;20256;-82
2021/03/14 12:41:18;;;;;;;11.37;1.50;;;8.50;99.90;;;;;;6152772;23;20220;-82
2021/03/14 12:43:46;;;;;;;8.60;1.40;;;8.50;99.90;;;;;;6149925;23;20150;-79
2021/03/14 12:46:15;;;;;;;8.63;1.40;;;8.40;99.90;;;;;;6151433;23;20192;-84
2021/03/14 12:48:49;;;;;;;9.43;1.40;;;8.30;99.90;;;;;;6152264;23;20198;-83
2021/03/14 12:51:14;;;;;;;7.60;1.23;;;8.30;99.90;;;;;;6150515;23;20149;-80
2021/03/14 12:53:40;;;;;;;10.23;1.67;;;8.30;99.90;;;;;;6150783;23;20156;-80
2021/03/14 12:56:12;;;;;;;9.17;1.67;;;8.20;99.90;;;;;;6153423;23;20208;-83
2021/03/14 12:58:37;;;;;;;8.73;1.50;;;8.40;99.90;;;;;;6153310;23;20145;-81
2021/03/14 13:01:20;;;;;;;8.17;1.27;;;8.60;99.90;;;;;;6152761;23;20167;-83
2021/03/14 13:03:45;;;;;;;10.00;1.53;;;8.80;99.90;;;;;;6153513;23;20157;-82
2021/03/14 13:06:11;;;;;;;8.47;1.47;;;9.00;99.90;;;;;;6153207;23;20243;-83
2021/03/14 13:08:37;;;;;;;7.40;1.40;;;9.00;99.90;;;;;;6152375;23;20156;-83
2021/03/14 13:11:03;;;;;;;8.00;1.20;;;9.10;99.90;;;;;;6154586;23;20232;-80
2021/03/14 13:13:29;;;;;;;6.27;1.40;;;9.20;99.90;;;;;;6152605;23;20208;-83
2021/03/14 13:15:55;;;;;;;6.67;1.43;;;9.20;99.90;;;;;;6153048;23;20727;-81
2021/03/14 13:18:20;;;;;;;7.17;0.80;;;9.40;99.90;;;;;;6153849;23;20188;-82
2021/03/14 13:20:47;;;;;;;8.80;1.70;;;9.40;99.90;;;;;;6152593;23;20589;-81
2021/03/14 13:23:15;;;;;;;8.60;1.30;;;9.60;99.90;;;;;;6151431;23;20267;-81
2021/03/14 13:25:41;;;;;;;5.73;0.80;;;9.50;99.90;;;;;;6153290;23;20189;-82
2021/03/14 13:28:07;;;;;;;7.70;1.17;;;9.20;99.90;;;;;;6152271;23;20160;-79
2021/03/14 13:30:33;;;;;;;8.43;1.30;;;9.00;99.90;;;;;;6152355;23;20140;-81
2021/03/14 13:32:58;;;;;;;14.03;1.23;;;8.80;99.90;;;;;;6153526;23;20153;-80
2021/03/14 13:35:24;;;;;;;10.50;1.80;;;8.80;99.90;;;;;;6154923;23;20149;-81
2021/03/14 13:37:50;;;;;;;5.93;1.37;;;8.80;99.90;;;;;;6152294;23;20157;-81
2021/03/14 13:40:18;;;;;;;7.87;1.40;;;8.90;99.90;;;;;;6152022;23;20207;-81
2021/03/14 13:42:44;;;;;;;8.00;1.50;;;8.90;99.90;;;;;;6150266;23;20176;-81
2021/03/14 13:45:10;;;;;;;6.73;1.20;;;8.80;99.90;;;;;;6151603;23;20193;-83
2021/03/14 13:47:36;;;;;;;8.70;1.00;;;8.70;99.90;;;;;;6150379;23;20446;-82
2021/03/14 13:50:03;;;;;;;7.07;1.30;;;8.80;99.90;;;;;;6151933;23;20169;-84
2021/03/14 13:52:29;;;;;;;7.67;1.20;;;8.90;99.90;;;;;;6152521;23;20152;-81
2021/03/14 13:54:54;;;;;;;4.20;0.90;;;8.90;99.90;;;;;;6152647;23;20161;-82
2021/03/14 13:57:20;;;;;;;6.73;1.07;;;9.00;99.90;;;;;;6152118;23;20517;-82
2021/03/14 13:59:46;;;;;;;9.23;0.90;;;9.10;99.90;;;;;;6151329;23;20164;-85
2021/03/14 14:02:46;;;;;;;8.53;1.00;;;9.10;99.90;;;;;;6152992;23;20157;-83
2021/03/14 14:05:13;;;;;;;7.50;1.40;;;9.20;99.90;;;;;;6152320;23;20224;-83
2021/03/14 14:08:27;;;;;;;5.03;0.83;;;9.10;99.90;;;;;;6150560;23;20169;-83
2021/03/14 14:10:52;;;;;;;8.07;1.37;;;9.00;99.90;;;;;;6151266;23;20138;-82
2021/03/14 14:13:24;;;;;;;8.60;1.40;;;9.10;99.90;;;;;;6154280;23;20272;-83
2021/03/14 14:15:55;;;;;;;9.77;1.80;;;9.10;99.90;;;;;;6152641;23;20192;-84
2021/03/14 14:18:21;;;;;;;5.90;1.00;;;9.00;99.90;;;;;;6153530;23;20156;-83
2021/03/14 14:20:46;;;;;;;11.73;1.40;;;9.20;99.90;;;;;;6153286;23;20560;-83
2021/03/14 14:23:12;;;;;;;10.70;1.70;;;9.20;99.90;;;;;;6153155;23;20491;-84
2021/03/14 14:25:37;;;;;;;9.20;1.57;;;9.30;99.90;;;;;;6154307;23;20176;-83
2021/03/14 14:28:03;;;;;;;9.57;1.63;;;9.20;99.90;;;;;;6152391;23;20153;-82
2021/03/14 14:30:29;;;;;;;10.43;1.40;;;9.10;99.90;;;;;;6151997;23;20157;-84
2021/03/14 14:32:56;;;;;;;9.47;1.70;;;9.00;99.90;;;;;;6154256;23;20149;-83
2021/03/14 14:35:22;;;;;;;12.63;2.30;;;8.80;99.90;;;;;;6152113;23;20486;-81
2021/03/14 14:37:47;;;;;;;8.50;1.80;;;8.80;99.90;;;;;;6151201;23;20172;-84
2021/03/14 14:40:13;;;;;;;7.93;1.67;;;8.90;99.90;;;;;;6153437;23;20145;-83
2021/03/14 14:42:39;;;;;;;17.03;2.17;;;8.90;99.90;;;;;;6154923;23;20295;-83
2021/03/14 14:45:05;;;;;;;14.63;2.30;;;8.90;99.90;;;;;;6152900;23;20212;-82
2021/03/14 14:47:31;;;;;;;9.37;1.13;;;8.70;99.90;;;;;;6153859;23;20169;-83
2021/03/14 14:49:57;;;;;;;10.47;1.57;;;8.60;99.90;;;;;;6152069;23;20307;-83
2021/03/14 14:52:23;;;;;;;11.87;1.90;;;8.60;99.90;;;;;;6151833;23;20461;-82
2021/03/14 14:54:48;;;;;;;15.33;2.03;;;8.80;99.90;;;;;;6152690;23;20593;-84
2021/03/14 14:57:19;;;;;;;9.07;1.60;;;9.00;99.90;;;;;;6151738;23;20168;-83
2021/03/14 14:59:44;;;;;;;13.87;2.67;;;9.00;99.90;;;;;;6153589;23;20529;-84
2021/03/14 15:02:10;;;;;;;11.17;2.17;;;8.80;99.90;;;;;;6151380;23;20180;-82
2021/03/14 15:04:36;;;;;;;13.33;1.90;;;8.80;99.90;;;;;;6153633;23;20153;-83
2021/03/14 15:07:03;;;;;;;14.17;2.50;;;8.70;99.90;;;;;;6152146;23;20284;-82
2021/03/14 15:09:28;;;;;;;9.43;1.90;;;8.70;99.90;;;;;;6152279;23;20188;-83
2021/03/14 15:11:54;;;;;;;9.73;1.83;;;8.60;99.90;;;;;;6151664;23;20164;-83
2021/03/14 15:14:20;;;;;;;16.60;3.20;;;8.50;99.90;;;;;;6153130;23;20496;-82
2021/03/14 15:16:46;;;;;;;13.03;2.67;;;8.30;99.90;;;;;;6152042;23;20185;-82
2021/03/14 15:19:11;;;;;;;12.03;2.20;;;8.30;99.90;;;;;;6152006;23;20161;-83
2021/03/14 15:21:49;;;;;;;14.03;2.20;;;8.30;99.90;;;;;;6152020;23;20157;-84
2021/03/14 15:24:15;;;;;;;14.07;2.20;;;8.20;99.90;;;;;;6152459;23;20164;-82
2021/03/14 15:26:41;;;;;;;11.10;2.10;;;8.40;99.90;;;;;;6152707;23;20188;-82
2021/03/14 15:29:06;;;;;;;14.73;2.33;;;8.30;99.90;;;;;;6151742;23;20184;-84
2021/03/14 15:31:32;;;;;;;12.97;2.40;;;8.40;99.90;;;;;;6152065;23;20160;-83
2021/03/14 15:33:57;;;;;;;11.60;2.47;;;8.20;99.90;;;;;;6151898;23;20150;-81
2021/03/14 15:36:23;;;;;;;13.60;2.10;;;8.30;99.90;;;;;;6151089;23;20260;-82
2021/03/14 15:38:49;;;;;;;9.73;1.93;;;8.10;99.90;;;;;;6151956;23;20167;-83
2021/03/14 15:41:14;;;;;;;11.00;2.03;;;8.20;99.90;;;;;;6152339;23;20157;-84
2021/03/14 15:43:40;;;;;;;10.10;1.90;;;8.30;99.90;;;;;;6151753;23;20164;-84
2021/03/14 15:46:05;;;;;;;13.53;2.13;;;8.20;99.90;;;;;;6151674;23;20189;-82
2021/03/14 15:48:31;;;;;;;8.07;1.63;;;8.20;99.90;;;;;;6151694;23;20149;-83
2021/03/14 15:50:57;;;;;;;7.70;1.93;;;8.20;99.90;;;;;;6151940;23;20259;-83
2021/03/14 15:53:26;;;;;;;9.07;2.00;;;7.90;99.90;;;;;;6151722;23;20203;-81
2021/03/14 15:55:51;;;;;;;11.50;1.97;;;7.80;99.90;;;;;;6154168;23;20519;-82
2021/03/14 15:58:18;;;;;;;7.30;0.97;;;7.70;99.90;;;;;;6152198;23;20248;-81
2021/03/14 16:00:43;;;;;;;11.93;1.47;;;7.70;99.90;;;;;;6152275;23;20161;-84
2021/03/14 16:03:09;;;;;;;9.33;1.20;;;7.80;99.90;;;;;;6153549;23;20609;-82
2021/03/14 16:05:35;;;;;;;11.63;1.60;;;7.80;99.90;;;;;;6151484;23;20196;-82
2021/03/14 16:08:00;;;;;;;12.27;1.90;;;7.80;99.90;;;;;;6151855;23;20160;-83
2021/03/14 16:10:26;;;;;;;11.07;1.60;;;7.60;99.90;;;;;;6151136;23;20232;-82
2021/03/14 16:12:52;;;;;;;12.70;1.70;;;7.60;99.90;;;;;;6153770;23;20879;-84
2021/03/14 16:15:18;;;;;;;9.47;2.03;;;7.60;99.90;;;;;;6151536;23;20188;-80
2021/03/14 16:17:43;;;;;;;9.93;1.90;;;7.60;99.90;;;;;;6151600;23;20164;-81
2021/03/14 16:20:11;;;;;;;10.70;2.20;;;7.60;99.90;;;;;;6151175;23;20168;-82
2021/03/14 16:22:36;;;;;;;14.90;1.97;;;7.60;99.90;;;;;;6151142;23;20157;-81
2021/03/14 16:25:03;;;;;;;16.13;2.27;;;7.60;99.90;;;;;;6151222;23;20188;-83
2021/03/14 16:27:31;;;;;;;8.07;1.20;;;7.60;99.90;;;;;;6152558;23;20173;-82
2021/03/14 16:29:57;;;;;;;6.17;1.47;;;7.40;99.90;;;;;;6155111;23;20140;-83
2021/03/14 16:32:22;;;;;;;7.73;1.40;;;7.30;99.90;;;;;;6155862;23;20149;-84
2021/03/14 16:34:48;;;;;;;13.33;1.87;;;7.30;99.90;;;;;;6154074;23;20542;-83
2021/03/14 16:37:16;;;;;;;8.77;1.43;;;7.30;99.90;;;;;;6155600;23;20175;-83
2021/03/14 16:39:43;;;;;;;10.13;1.60;;;7.30;99.90;;;;;;6153856;23;20149;-83
2021/03/14 16:42:08;;;;;;;13.37;2.17;;;7.20;99.90;;;;;;6153949;23;20173;-84
2021/03/14 16:44:35;;;;;;;13.00;2.53;;;7.20;99.90;;;;;;6155521;23;20149;-82
2021/03/14 16:47:16;;;;;;;9.80;2.00;;;7.10;99.90;;;;;;6153163;23;20204;-83
2021/03/14 16:49:42;;;;;;;17.20;2.97;;;7.20;99.90;;;;;;6153519;23;20145;-83
2021/03/14 16:52:09;;;;;;;10.53;2.07;;;7.20;99.90;;;;;;6154798;23;20157;-83
2021/03/14 16:54:36;;;;;;;11.20;2.27;;;7.20;99.90;;;;;;6155828;23;20150;-83
2021/03/14 16:57:02;;;;;;;12.70;2.00;;;7.10;99.90;;;;;;6154419;23;20203;-83
2021/03/14 16:59:27;;;;;;;11.30;1.93;;;7.00;99.90;;;;;;6153246;23;20605;-84
2021/03/14 17:01:53;;;;;;;11.90;1.77;;;7.00;99.90;;;;;;6155516;23;20224;-84
2021/03/14 17:04:18;;;;;;;11.80;3.67;;;7.00;99.90;;;;;;6155048;23;20510;-83
2021/03/14 21:21:13;;;;;;;16.27;2.10;;;5.60;99.90;;;;;;6215335;23;20206;-82
2021/03/14 21:23:38;;;;;;;15.83;2.50;;;5.60;99.90;;;;;;6189791;23;20155;-82
2021/03/14 21:26:05;;;;;;;12.23;2.50;;;5.60;99.90;;;;;;6214378;23;20248;-82
2021/03/14 21:28:31;;;;;;;13.60;2.70;;;5.60;99.90;;;;;;6215549;23;20159;-84
2021/03/14 21:30:57;;;;;;;16.70;2.33;;;5.50;99.90;;;;;;6184985;23;20309;-82
